FYLZ/LUD METAR and TAF weather

Enter ICAO airport designator
Station Type Date Time Source
FYLZ METAR 2019/06/26 22:00 UTC NOAA

FYLZ 262200Z AUTO 13002KT //// // ////// 11/04 Q1015


Station Type Date Time Source
FYLZ Decoded METAR 2019/06/26 22:00 UTC NOAA

Luderitz / Diaz Point, Namibia (FYLZ) 26-41S 015-15E
Jun 26, 2019 - 06:00 PM EDT / 2019.06.26 2200 UTC
Wind: from the SE (130 degrees) at 2 MPH (2 KT):0
Temperature: 51 F (11 C)
Dew Point: 39 F (4 C)
Relative Humidity: 61%
Pressure (altimeter): 29.97 in. Hg (1015 hPa)
ob: FYLZ 262200Z AUTO 13002KT //// // ////// 11/04 Q1015
cycle: 22

Station Type Date Time Source
FYLZ TAF 2014/11/15 15:19 UTC NOAA

TAF FYLZ 151400Z 1515/1524 18015G28KT CAVOK
BECMG 1518/1520 16020KT

Example: see airport list